Time,TemperatureF,DewpointF,PressureIn,WindDirection,WindDirectionDegrees,WindSpeedMPH,WindSpeedGustMPH,Humidity,HourlyPrecipIn,Conditions,Clouds,dailyrainin,SoftwareType,DateUTC
2013-04-28 00:02:00,59.5,55.3,30.16,WNW,283,0.0,0.0,86,0.00,CLR,,0.00,WeatherDisplay:10.37,2013-04-28 05:02:00,
2013-04-28 00:07:00,59.5,55.6,30.16,WNW,283,0.0,0.0,87,0.00,CLR,,0.00,WeatherDisplay:10.37,2013-04-28 05:07:00,
2013-04-28 00:12:00,59.3,55.4,30.16,WNW,283,0.0,0.0,87,0.00,CLR,,0.00,WeatherDisplay:10.37,2013-04-28 05:12:00,
2013-04-28 00:17:00,59.2,55.6,30.17,WNW,283,0.0,0.0,88,0.00,CLR,,0.00,WeatherDisplay:10.37,2013-04-28 05:17:00,
2013-04-28 00:22:00,59.2,56.0,30.16,WNW,283,0.0,0.0,89,0.00,CLR,,0.00,WeatherDisplay:10.37,2013-04-28 05:22:00,
2013-04-28 00:27:00,59.0,55.8,30.16,WNW,283,0.0,0.0,89,0.00,CLR,,0.00,WeatherDisplay:10.37,2013-04-28 05:27:00,
2013-04-28 00:32:00,59.0,55.8,30.16,WNW,283,0.0,0.0,89,0.00,CLR,,0.00,WeatherDisplay:10.37,2013-04-28 05:32:00,
2013-04-28 00:37:00,59.2,55.6,30.16,North,10,1.0,0.0,88,0.00,CLR,,0.00,WeatherDisplay:10.37,2013-04-28 05:37:00,
2013-04-28 00:42:00,59.2,55.3,30.16,NNE,15,0.0,0.0,87,0.00,CLR,,0.00,WeatherDisplay:10.37,2013-04-28 05:42:00,
2013-04-28 00:47:00,59.2,55.6,30.16,NNE,15,0.0,0.0,88,0.00,CLR,,0.00,WeatherDisplay:10.37,2013-04-28 05:47:00,
2013-04-28 00:52:00,59.2,55.6,30.16,NNE,15,0.0,0.0,88,0.00,CLR,,0.00,WeatherDisplay:10.37,2013-04-28 05:52:00,
2013-04-28 00:57:00,59.2,56.0,30.16,NNE,15,1.1,0.0,89,0.00,CLR,,0.00,WeatherDisplay:10.37,2013-04-28 05:57:00,
2013-04-28 01:02:00,59.0,55.8,30.16,NNE,15,0.0,0.0,89,0.00,CLR,,0.00,WeatherDisplay:10.37,2013-04-28 06:02:00,
2013-04-28 01:07:00,58.9,56.0,30.15,NNE,15,0.0,0.0,90,0.00,CLR,,0.00,WeatherDisplay:10.37,2013-04-28 06:07:00,
2013-04-28 01:12:00,58.9,56.3,30.14,NNE,15,0.0,0.0,91,0.00,CLR,,0.00,WeatherDisplay:10.37,2013-04-28 06:12:00,
2013-04-28 01:17:00,58.7,56.1,30.15,NNE,15,0.0,0.0,91,0.00,CLR,,0.00,WeatherDisplay:10.37,2013-04-28 06:17:00,
2013-04-28 01:22:00,58.7,56.4,30.16,NNE,15,0.0,0.0,92,0.00,CLR,,0.00,WeatherDisplay:10.37,2013-04-28 06:22:00,
2013-04-28 01:27:00,58.6,56.3,30.15,NNE,15,0.0,0.0,92,0.00,CLR,,0.00,WeatherDisplay:10.37,2013-04-28 06:27:00,
2013-04-28 01:32:00,58.6,56.3,30.14,NNE,15,0.0,0.0,92,0.00,CLR,,0.00,WeatherDisplay:10.37,2013-04-28 06:32:00,
2013-04-28 01:37:00,58.4,56.4,30.14,NNE,15,0.0,0.0,93,0.00,CLR,,0.00,WeatherDisplay:10.37,2013-04-28 06:37:00,
2013-04-28 01:42:00,58.4,56.4,30.14,NNE,15,0.0,0.0,93,0.00,CLR,,0.00,WeatherDisplay:10.37,2013-04-28 06:42:00,
2013-04-28 01:47:00,58.4,56.4,30.13,NNE,15,0.0,0.0,93,0.00,CLR,,0.00,WeatherDisplay:10.37,2013-04-28 06:47:00,
2013-04-28 01:52:00,58.4,56.4,30.13,NNE,15,0.0,0.0,93,0.00,CLR,,0.00,WeatherDisplay:10.37,2013-04-28 06:52:00,
2013-04-28 01:57:00,58.4,56.7,30.13,NNE,15,0.0,0.0,94,0.00,CLR,,0.00,WeatherDisplay:10.37,2013-04-28 06:57:00,
2013-04-28 02:02:00,58.4,56.7,30.13,NNE,15,0.0,0.0,94,0.00,CLR,,0.00,WeatherDisplay:10.37,2013-04-28 07:02:00,
2013-04-28 02:07:00,58.4,56.7,30.14,NNE,15,0.0,0.0,94,0.00,CLR,,0.00,WeatherDisplay:10.37,2013-04-28 07:07:00,
2013-04-28 02:12:00,58.4,56.7,30.13,NNE,15,0.0,0.0,94,0.00,CLR,,0.00,WeatherDisplay:10.37,2013-04-28 07:12:00,
2013-04-28 02:17:00,58.4,56.7,30.13,NNE,15,1.1,1.1,94,0.00,CLR,,0.00,WeatherDisplay:10.37,2013-04-28 07:17:00,
2013-04-28 02:22:00,58.4,56.7,30.13,ENE,57,2.3,2.3,94,0.00,CLR,,0.00,WeatherDisplay:10.37,2013-04-28 07:22:00,
2013-04-28 02:27:00,58.4,56.7,30.12,ENE,57,0.0,0.0,94,0.00,CLR,,0.00,WeatherDisplay:10.37,2013-04-28 07:27:00,
2013-04-28 02:32:00,58.4,56.7,30.11,ENE,57,0.0,0.0,94,0.00,CLR,,0.00,WeatherDisplay:10.37,2013-04-28 07:32:00,
2013-04-28 02:37:00,58.4,56.7,30.11,ENE,57,0.0,0.0,94,0.00,CLR,,0.00,WeatherDisplay:10.37,2013-04-28 07:37:00,
2013-04-28 02:42:00,58.4,56.7,30.11,ENE,57,0.0,0.0,94,0.00,CLR,,0.00,WeatherDisplay:10.37,2013-04-28 07:42:00,
2013-04-28 02:47:00,58.4,56.7,30.11,ENE,57,0.0,0.0,94,0.00,CLR,,0.00,WeatherDisplay:10.37,2013-04-28 07:47:00,
2013-04-28 02:52:00,58.4,56.7,30.11,ENE,57,0.0,0.0,94,0.00,CLR,,0.00,WeatherDisplay:10.37,2013-04-28 07:52:00,
2013-04-28 02:57:00,58.4,56.7,30.11,ENE,57,0.0,0.0,94,0.00,CLR,,0.00,WeatherDisplay:10.37,2013-04-28 07:57:00,
2013-04-28 03:02:00,58.4,56.7,30.11,ENE,57,0.0,0.0,94,0.00,CLR,,0.00,WeatherDisplay:10.37,2013-04-28 08:02:00,
2013-04-28 03:07:00,58.6,57.2,30.10,ENE,57,0.0,0.0,95,0.00,CLR,,0.00,WeatherDisplay:10.37,2013-04-28 08:07:00,
2013-04-28 03:12:00,58.6,57.2,30.10,ENE,57,0.0,0.0,95,0.00,CLR,,0.00,WeatherDisplay:10.37,2013-04-28 08:12:00,
2013-04-28 03:17:00,58.4,57.0,30.10,ENE,57,1.1,0.0,95,0.00,CLR,,0.00,WeatherDisplay:10.37,2013-04-28 08:17:00,
2013-04-28 03:22:00,58.4,57.0,30.10,ENE,57,0.0,0.1,95,0.00,CLR,,0.00,WeatherDisplay:10.37,2013-04-28 08:22:00,
2013-04-28 03:27:00,58.4,57.0,30.10,ENE,57,0.0,0.0,95,0.00,CLR,,0.00,WeatherDisplay:10.37,2013-04-28 08:27:00,
2013-04-28 03:32:00,58.4,57.0,30.10,ENE,57,0.0,0.0,95,0.00,CLR,,0.00,WeatherDisplay:10.37,2013-04-28 08:32:00,
2013-04-28 03:37:00,58.4,57.0,30.09,ENE,57,3.5,3.5,95,0.00,CLR,,0.00,WeatherDisplay:10.37,2013-04-28 08:37:00,
2013-04-28 03:42:00,58.4,57.0,30.11,NNE,13,3.5,3.5,95,0.00,CLR,,0.00,WeatherDisplay:10.37,2013-04-28 08:42:00,
2013-04-28 03:47:00,58.4,57.0,30.12,North,355,4.6,4.6,95,0.00,CLR,,0.00,WeatherDisplay:10.37,2013-04-28 08:47:00,
2013-04-28 03:52:00,58.6,57.2,30.15,WNW,288,3.5,3.5,95,0.00,CLR,,0.00,WeatherDisplay:10.37,2013-04-28 08:52:00,
2013-04-28 03:57:00,58.9,57.2,30.16,WNW,290,4.6,0.0,94,0.00,CLR,,0.00,WeatherDisplay:10.37,2013-04-28 08:57:00,
2013-04-28 04:03:00,59.0,57.0,30.13,NNE,24,3.5,3.5,93,0.00,CLR,,0.00,WeatherDisplay:10.37,2013-04-28 09:03:00,
2013-04-28 04:08:00,59.0,57.0,30.12,NNE,22,0.0,0.0,93,0.00,CLR,,0.00,WeatherDisplay:10.37,2013-04-28 09:08:00,
2013-04-28 04:13:00,59.0,57.0,30.11,NNE,22,0.0,0.0,93,0.00,CLR,,0.00,WeatherDisplay:10.37,2013-04-28 09:13:00,
2013-04-28 04:18:00,58.9,56.9,30.10,NNE,22,0.0,0.0,93,0.00,CLR,,0.00,WeatherDisplay:10.37,2013-04-28 09:18:00,
2013-04-28 04:23:00,58.9,56.9,30.10,NNE,22,0.0,0.0,93,0.00,CLR,,0.00,WeatherDisplay:10.37,2013-04-28 09:23:00,
2013-04-28 04:28:00,58.7,57.0,30.10,NNE,22,0.0,0.0,94,0.00,CLR,,0.00,WeatherDisplay:10.37,2013-04-28 09:28:00,
2013-04-28 04:33:00,58.6,56.9,30.09,NNE,22,0.0,0.0,94,0.00,CLR,,0.00,WeatherDisplay:10.37,2013-04-28 09:33:00,
2013-04-28 04:38:00,58.6,56.9,30.09,NNE,22,3.5,3.5,94,0.00,CLR,,0.00,WeatherDisplay:10.37,2013-04-28 09:38:00,
2013-04-28 04:43:00,58.4,56.7,30.09,NNE,22,0.0,0.0,94,0.00,CLR,,0.00,WeatherDisplay:10.37,2013-04-28 09:43:00,
2013-04-28 04:48:00,58.4,56.7,30.09,NNE,22,1.1,1.1,94,0.00,CLR,,0.00,WeatherDisplay:10.37,2013-04-28 09:48:00,
2013-04-28 04:53:00,58.4,57.0,30.06,NNE,22,1.1,0.0,95,0.00,CLR,,0.00,WeatherDisplay:10.37,2013-04-28 09:53:00,
2013-04-28 04:58:00,58.3,56.9,30.07,NNE,22,2.3,2.3,95,0.00,CLR,,0.00,WeatherDisplay:10.37,2013-04-28 09:58:00,
2013-04-28 05:03:00,58.3,56.9,30.08,NNE,22,0.0,0.0,95,0.00,CLR,,0.00,WeatherDisplay:10.37,2013-04-28 10:03:00,
2013-04-28 05:08:00,58.3,56.9,30.09,NNE,22,2.3,2.3,95,0.00,CLR,,0.00,WeatherDisplay:10.37,2013-04-28 10:08:00,
2013-04-28 05:13:00,58.3,56.9,30.09,NNE,22,0.0,0.0,95,0.00,CLR,,0.00,WeatherDisplay:10.37,2013-04-28 10:13:00,
2013-04-28 05:18:00,58.1,56.7,30.09,NNE,22,0.0,0.0,95,0.00,CLR,,0.00,WeatherDisplay:10.37,2013-04-28 10:18:00,
2013-04-28 05:23:00,58.0,56.6,30.10,NNE,22,0.0,0.0,95,0.00,CLR,,0.00,WeatherDisplay:10.37,2013-04-28 10:23:00,
2013-04-28 05:28:00,57.8,56.4,30.10,NNE,22,0.0,0.0,95,0.00,CLR,,0.00,WeatherDisplay:10.37,2013-04-28 10:28:00,
2013-04-28 05:33:00,57.6,56.2,30.09,NNE,22,0.0,0.0,95,0.00,CLR,,0.00,WeatherDisplay:10.37,2013-04-28 10:33:00,
2013-04-28 05:38:00,57.6,56.2,30.09,NNE,22,0.0,0.0,95,0.00,CLR,,0.00,WeatherDisplay:10.37,2013-04-28 10:38:00,
2013-04-28 05:43:00,57.5,56.1,30.09,NNE,22,0.0,0.0,95,0.00,CLR,,0.00,WeatherDisplay:10.37,2013-04-28 10:43:00,
2013-04-28 05:48:00,57.6,56.2,30.09,NNE,22,0.0,0.0,95,0.00,CLR,,0.00,WeatherDisplay:10.37,2013-04-28 10:48:00,
2013-04-28 05:53:00,57.6,56.2,30.09,NNE,22,0.0,0.0,95,0.00,CLR,,0.00,WeatherDisplay:10.37,2013-04-28 10:53:00,
2013-04-28 05:58:00,57.6,56.2,30.08,NNE,22,0.0,0.0,95,0.00,CLR,,0.00,WeatherDisplay:10.37,2013-04-28 10:58:00,
2013-04-28 06:03:00,57.5,56.1,30.09,NNE,22,0.0,0.0,95,0.00,CLR,,0.00,WeatherDisplay:10.37,2013-04-28 11:03:00,
2013-04-28 06:08:00,57.6,56.2,30.09,NNE,22,0.0,0.0,95,0.00,CLR,,0.00,WeatherDisplay:10.37,2013-04-28 11:08:00,
2013-04-28 06:13:00,57.6,56.2,30.09,NNE,22,0.0,0.0,95,0.00,CLR,,0.00,WeatherDisplay:10.37,2013-04-28 11:13:00,
2013-04-28 06:18:00,57.6,56.2,30.10,NNE,22,0.0,0.0,95,0.00,CLR,,0.00,WeatherDisplay:10.37,2013-04-28 11:18:00,
2013-04-28 06:23:00,57.6,56.2,30.10,NNE,20,1.1,1.1,95,0.00,CLR,,0.00,WeatherDisplay:10.37,2013-04-28 11:23:00,
2013-04-28 06:28:00,57.6,56.2,30.11,NNE,19,0.0,0.0,95,0.00,CLR,,0.00,WeatherDisplay:10.37,2013-04-28 11:28:00,
2013-04-28 06:33:00,57.6,56.5,30.11,NNE,19,0.0,0.0,96,0.00,CLR,,0.00,WeatherDisplay:10.37,2013-04-28 11:33:00,
2013-04-28 06:38:00,57.6,56.5,30.12,NNE,19,0.0,0.0,96,0.00,CLR,,0.00,WeatherDisplay:10.37,2013-04-28 11:38:00,
2013-04-28 06:43:00,57.6,56.5,30.12,NNE,19,0.0,0.0,96,0.00,CLR,,0.00,WeatherDisplay:10.37,2013-04-28 11:43:00,
2013-04-28 06:48:00,57.6,56.5,30.12,NNE,19,0.0,0.0,96,0.00,CLR,,0.00,WeatherDisplay:10.37,2013-04-28 11:48:00,
2013-04-28 06:53:00,57.8,56.7,30.11,NNE,24,0.0,0.0,96,0.00,CLR,,0.00,WeatherDisplay:10.37,2013-04-28 11:53:00,
2013-04-28 06:58:00,57.8,56.7,30.10,East,81,0.0,0.0,96,0.00,CLR,,0.00,WeatherDisplay:10.37,2013-04-28 11:58:00,
2013-04-28 07:03:00,57.8,56.7,30.11,ENE,70,0.0,0.0,96,0.00,CLR,,0.00,WeatherDisplay:10.37,2013-04-28 12:03:00,
2013-04-28 07:08:00,57.8,56.7,30.11,ENE,70,0.0,0.0,96,0.00,CLR,,0.00,WeatherDisplay:10.37,2013-04-28 12:08:00,
2013-04-28 07:13:00,57.8,56.7,30.12,ENE,70,0.0,0.0,96,0.00,CLR,,0.00,WeatherDisplay:10.37,2013-04-28 12:13:00,
2013-04-28 07:18:00,57.8,56.7,30.12,NE,40,0.0,0.0,96,0.00,CLR,,0.00,WeatherDisplay:10.37,2013-04-28 12:18:00,
2013-04-28 07:23:00,57.8,56.7,30.13,NE,40,0.0,0.0,96,0.00,CLR,,0.00,WeatherDisplay:10.37,2013-04-28 12:23:00,
2013-04-28 07:28:00,57.8,56.7,30.12,NE,40,0.0,0.0,96,0.00,CLR,,0.00,WeatherDisplay:10.37,2013-04-28 12:28:00,
2013-04-28 07:33:00,57.8,56.7,30.12,NE,40,0.0,0.0,96,0.00,CLR,,0.00,WeatherDisplay:10.37,2013-04-28 12:33:00,
2013-04-28 07:38:00,58.0,56.9,30.11,NE,40,3.5,3.5,96,0.00,CLR,,0.00,WeatherDisplay:10.37,2013-04-28 12:38:00,
2013-04-28 07:43:00,58.0,56.9,30.11,NE,40,0.0,0.0,96,0.00,CLR,,0.00,WeatherDisplay:10.37,2013-04-28 12:43:00,
2013-04-28 07:48:00,58.0,56.9,30.11,NE,40,0.0,0.0,96,0.00,CLR,,0.00,WeatherDisplay:10.37,2013-04-28 12:48:00,
2013-04-28 07:53:00,58.0,56.9,30.11,NE,40,0.0,0.0,96,0.00,CLR,,0.00,WeatherDisplay:10.37,2013-04-28 12:53:00,
2013-04-28 07:58:00,58.0,56.9,30.11,NE,40,0.0,0.0,96,0.00,CLR,,0.00,WeatherDisplay:10.37,2013-04-28 12:58:00,
2013-04-28 08:03:00,58.1,57.0,30.11,NE,40,0.0,0.0,96,0.00,CLR,,0.00,WeatherDisplay:10.37,2013-04-28 13:03:00,
2013-04-28 08:08:00,58.1,57.0,30.11,NE,40,0.0,0.0,96,0.00,CLR,,0.00,WeatherDisplay:10.37,2013-04-28 13:08:00,
2013-04-28 08:13:00,58.1,57.0,30.11,NE,40,0.0,0.0,96,0.00,CLR,,0.00,WeatherDisplay:10.37,2013-04-28 13:13:00,
2013-04-28 08:18:00,58.3,57.2,30.11,NE,40,0.0,0.0,96,0.00,CLR,,0.00,WeatherDisplay:10.37,2013-04-28 13:18:00,
2013-04-28 08:23:00,58.1,57.0,30.13,NE,40,0.0,0.0,96,0.00,CLR,,0.00,WeatherDisplay:10.37,2013-04-28 13:23:00,
2013-04-28 08:28:00,58.3,57.2,30.12,NE,40,0.0,0.0,96,0.00,CLR,,0.00,WeatherDisplay:10.37,2013-04-28 13:28:00,
2013-04-28 08:33:00,58.1,57.0,30.12,NE,40,0.0,0.0,96,0.00,CLR,,0.00,WeatherDisplay:10.37,2013-04-28 13:33:00,
2013-04-28 08:38:00,58.1,57.0,30.12,NE,40,0.0,0.0,96,0.00,CLR,,0.00,WeatherDisplay:10.37,2013-04-28 13:38:00,
2013-04-28 08:43:00,58.1,57.0,30.12,NE,40,0.0,0.1,96,0.00,CLR,,0.00,WeatherDisplay:10.37,2013-04-28 13:43:00,
2013-04-28 08:48:00,58.1,57.0,30.12,NE,40,0.0,0.0,96,0.00,CLR,,0.00,WeatherDisplay:10.37,2013-04-28 13:48:00,
2013-04-28 08:53:00,58.1,57.0,30.12,NE,40,0.0,0.0,96,0.00,CLR,,0.00,WeatherDisplay:10.37,2013-04-28 13:53:00,
2013-04-28 08:58:00,58.3,57.2,30.11,NNE,13,3.5,3.5,96,0.00,CLR,,0.00,WeatherDisplay:10.37,2013-04-28 13:58:00,
2013-04-28 09:03:00,58.3,57.2,30.12,NNE,13,0.0,0.0,96,0.00,CLR,,0.00,WeatherDisplay:10.37,2013-04-28 14:03:00,
2013-04-28 09:08:00,58.3,57.2,30.12,NNE,13,0.0,0.0,96,0.00,CLR,,0.00,WeatherDisplay:10.37,2013-04-28 14:08:00,
2013-04-28 09:13:00,58.4,57.3,30.11,NNE,13,0.0,0.0,96,0.00,CLR,,0.00,WeatherDisplay:10.37,2013-04-28 14:13:00,
2013-04-28 09:18:00,58.4,57.3,30.11,NNE,13,0.0,0.0,96,0.00,CLR,,0.00,WeatherDisplay:10.37,2013-04-28 14:18:00,
2013-04-28 09:23:00,58.6,57.5,30.11,NNE,13,0.0,0.0,96,0.00,CLR,,0.00,WeatherDisplay:10.37,2013-04-28 14:23:00,
2013-04-28 09:28:00,58.6,57.5,30.12,NNE,13,0.0,0.0,96,0.00,CLR,,0.00,WeatherDisplay:10.37,2013-04-28 14:28:00,
2013-04-28 09:33:00,58.6,57.5,30.12,NNE,13,0.0,0.0,96,0.00,CLR,,0.00,WeatherDisplay:10.37,2013-04-28 14:33:00,
2013-04-28 09:38:00,58.6,57.5,30.12,NNW,331,2.3,0.0,96,0.00,CLR,,0.00,WeatherDisplay:10.37,2013-04-28 14:38:00,
2013-04-28 09:43:00,58.7,57.6,30.11,NNW,331,1.1,0.0,96,0.00,CLR,,0.00,WeatherDisplay:10.37,2013-04-28 14:43:00,
2013-04-28 09:48:00,58.7,57.6,30.11,NNW,331,1.1,0.0,96,0.00,CLR,,0.00,WeatherDisplay:10.37,2013-04-28 14:48:00,
2013-04-28 09:53:00,58.7,57.6,30.11,NNW,331,0.0,0.0,96,0.00,CLR,,0.00,WeatherDisplay:10.37,2013-04-28 14:53:00,
2013-04-28 09:58:00,58.7,57.6,30.11,NNW,331,0.0,0.0,96,0.00,CLR,,0.00,WeatherDisplay:10.37,2013-04-28 14:58:00,
2013-04-28 10:03:00,58.7,57.6,30.11,NNW,331,0.0,0.0,96,0.00,CLR,,0.00,WeatherDisplay:10.37,2013-04-28 15:03:00,
2013-04-28 10:08:00,58.7,57.6,30.11,NNW,332,1.1,0.0,96,0.00,CLR,,0.00,WeatherDisplay:10.37,2013-04-28 15:08:00,
2013-04-28 10:13:00,58.7,57.6,30.11,NNW,331,0.0,0.0,96,0.00,CLR,,0.00,WeatherDisplay:10.37,2013-04-28 15:13:00,
2013-04-28 10:18:00,58.9,57.8,30.10,NNW,332,0.0,0.0,96,0.00,CLR,,0.00,WeatherDisplay:10.37,2013-04-28 15:18:00,
2013-04-28 10:23:00,58.9,57.8,30.10,NNW,331,0.0,0.0,96,0.00,CLR,,0.00,WeatherDisplay:10.37,2013-04-28 15:23:00,
2013-04-28 10:28:00,59.0,57.9,30.09,West,275,0.0,0.0,96,0.00,CLR,,0.00,WeatherDisplay:10.37,2013-04-28 15:28:00,
2013-04-28 10:33:00,59.0,57.9,30.10,West,275,0.0,0.0,96,0.00,CLR,,0.00,WeatherDisplay:10.37,2013-04-28 15:33:00,
2013-04-28 10:38:00,59.0,57.9,30.10,West,275,0.0,0.0,96,0.00,CLR,,0.00,WeatherDisplay:10.37,2013-04-28 15:38:00,
2013-04-28 10:43:00,59.0,57.9,30.10,West,275,0.0,0.0,96,0.00,CLR,,0.00,WeatherDisplay:10.37,2013-04-28 15:43:00,
2013-04-28 10:48:00,59.0,57.9,30.10,West,275,0.0,0.0,96,0.00,CLR,,0.00,WeatherDisplay:10.37,2013-04-28 15:48:00,
2013-04-28 10:53:00,59.0,57.9,30.10,West,275,0.0,0.0,96,0.00,CLR,,0.00,WeatherDisplay:10.37,2013-04-28 15:53:00,
2013-04-28 10:58:00,59.2,58.1,30.09,West,275,0.0,0.0,96,0.00,CLR,,0.00,WeatherDisplay:10.37,2013-04-28 15:58:00,
2013-04-28 11:03:00,59.2,58.1,30.09,West,275,0.0,0.0,96,0.00,CLR,,0.00,WeatherDisplay:10.37,2013-04-28 16:03:00,
2013-04-28 11:08:00,59.2,58.1,30.09,West,275,0.0,0.0,96,0.00,CLR,,0.00,WeatherDisplay:10.37,2013-04-28 16:08:00,
2013-04-28 11:13:00,59.2,58.1,30.09,West,275,0.0,0.0,96,0.00,CLR,,0.00,WeatherDisplay:10.37,2013-04-28 16:13:00,
2013-04-28 11:18:00,59.0,57.9,30.09,West,275,0.0,0.0,96,0.00,CLR,,0.00,WeatherDisplay:10.37,2013-04-28 16:18:00,
2013-04-28 11:23:00,59.0,57.9,30.10,West,275,0.0,0.0,96,0.00,CLR,,0.00,WeatherDisplay:10.37,2013-04-28 16:23:00,
2013-04-28 11:28:00,59.0,57.9,30.11,West,275,0.0,0.0,96,0.00,CLR,,0.00,WeatherDisplay:10.37,2013-04-28 16:28:00,
2013-04-28 11:33:00,59.0,57.9,30.11,West,275,0.0,0.0,96,0.00,CLR,,0.00,WeatherDisplay:10.37,2013-04-28 16:33:00,
2013-04-28 11:38:00,58.9,57.8,30.10,West,275,0.0,0.0,96,0.00,CLR,,0.00,WeatherDisplay:10.37,2013-04-28 16:38:00,
2013-04-28 11:43:00,58.9,57.8,30.11,West,275,0.0,0.0,96,0.00,CLR,,0.00,WeatherDisplay:10.37,2013-04-28 16:43:00,
2013-04-28 11:48:00,58.9,57.8,30.10,West,275,0.0,0.0,96,0.00,CLR,,0.00,WeatherDisplay:10.37,2013-04-28 16:48:00,
2013-04-28 11:53:00,58.9,57.8,30.11,West,275,0.0,0.0,96,0.00,CLR,,0.00,WeatherDisplay:10.37,2013-04-28 16:53:00,
2013-04-28 11:58:00,59.0,57.9,30.12,West,275,0.0,0.0,96,0.00,CLR,,0.00,WeatherDisplay:10.37,2013-04-28 16:58:00,
2013-04-28 12:03:00,59.2,58.1,30.12,NNW,348,2.3,2.3,96,0.00,CLR,,0.00,WeatherDisplay:10.37,2013-04-28 17:03:00,
2013-04-28 12:08:00,59.5,58.4,30.12,NNW,348,2.3,2.3,96,0.00,CLR,,0.00,WeatherDisplay:10.37,2013-04-28 17:08:00,
2013-04-28 12:13:00,59.6,58.5,30.12,NNW,348,2.3,2.3,96,0.00,CLR,,0.00,WeatherDisplay:10.37,2013-04-28 17:13:00,
2013-04-28 12:18:00,59.6,58.5,30.11,North,349,0.0,0.0,96,0.00,CLR,,0.00,WeatherDisplay:10.37,2013-04-28 17:18:00,
2013-04-28 12:23:00,59.6,58.5,30.11,North,349,2.3,0.0,96,0.00,CLR,,0.00,WeatherDisplay:10.37,2013-04-28 17:23:00,
2013-04-28 12:28:00,59.6,58.5,30.11,North,350,1.0,1.0,96,0.00,CLR,,0.00,WeatherDisplay:10.37,2013-04-28 17:28:00,
2013-04-28 12:33:00,59.6,58.5,30.11,North,350,1.1,0.0,96,0.00,CLR,,0.00,WeatherDisplay:10.37,2013-04-28 17:33:00,
2013-04-28 12:38:00,59.6,58.5,30.10,North,349,0.0,0.0,96,0.00,CLR,,0.00,WeatherDisplay:10.37,2013-04-28 17:38:00,
2013-04-28 12:43:00,59.6,58.5,30.10,North,350,0.0,0.0,96,0.00,CLR,,0.00,WeatherDisplay:10.37,2013-04-28 17:43:00,
2013-04-28 12:48:00,59.6,58.5,30.10,North,350,2.3,2.3,96,0.00,CLR,,0.00,WeatherDisplay:10.37,2013-04-28 17:48:00,
2013-04-28 12:53:00,59.5,58.4,30.09,North,350,0.0,0.0,96,0.00,CLR,,0.00,WeatherDisplay:10.37,2013-04-28 17:53:00,
2013-04-28 12:58:00,59.5,58.4,30.09,North,350,2.3,2.3,96,0.00,CLR,,0.00,WeatherDisplay:10.37,2013-04-28 17:58:00,
2013-04-28 13:03:00,59.3,58.2,30.09,North,350,0.0,0.0,96,0.00,CLR,,0.00,WeatherDisplay:10.37,2013-04-28 18:03:00,
2013-04-28 13:08:00,59.3,58.2,30.09,North,350,0.0,0.0,96,0.00,CLR,,0.00,WeatherDisplay:10.37,2013-04-28 18:08:00,
2013-04-28 13:13:00,59.3,58.2,30.10,North,350,1.1,1.1,96,0.00,CLR,,0.00,WeatherDisplay:10.37,2013-04-28 18:13:00,
2013-04-28 13:18:00,59.3,58.2,30.09,North,350,0.0,0.0,96,0.00,CLR,,0.00,WeatherDisplay:10.37,2013-04-28 18:18:00,
2013-04-28 13:23:00,59.6,58.5,30.09,North,350,0.0,0.0,96,0.00,CLR,,0.00,WeatherDisplay:10.37,2013-04-28 18:23:00,
2013-04-28 13:28:00,59.8,58.7,30.09,North,350,1.1,0.0,96,0.00,CLR,,0.00,WeatherDisplay:10.37,2013-04-28 18:28:00,
2013-04-28 13:33:00,59.9,58.8,30.08,North,350,0.0,0.0,96,0.00,CLR,,0.00,WeatherDisplay:10.37,2013-04-28 18:33:00,
2013-04-28 13:38:00,60.1,59.0,30.07,North,350,0.0,0.0,96,0.00,CLR,,0.00,WeatherDisplay:10.37,2013-04-28 18:38:00,
2013-04-28 13:43:00,60.2,59.1,30.07,North,350,0.0,0.0,96,0.00,CLR,,0.00,WeatherDisplay:10.37,2013-04-28 18:43:00,
2013-04-28 13:48:00,60.2,59.1,30.05,North,360,0.0,0.9,96,0.00,CLR,,0.00,WeatherDisplay:10.37,2013-04-28 18:48:00,
2013-04-28 13:53:00,60.2,59.1,30.07,North,360,0.0,0.0,96,0.00,CLR,,0.00,WeatherDisplay:10.37,2013-04-28 18:53:00,
2013-04-28 13:58:00,60.2,59.1,30.07,North,360,0.0,0.0,96,0.00,CLR,,0.00,WeatherDisplay:10.37,2013-04-28 18:58:00,
2013-04-28 14:03:00,60.2,59.1,30.06,North,360,0.0,0.0,96,0.00,CLR,,0.00,WeatherDisplay:10.37,2013-04-28 19:03:00,
2013-04-28 14:08:00,60.7,59.6,30.06,North,360,2.3,0.0,96,0.00,CLR,,0.00,WeatherDisplay:10.37,2013-04-28 19:08:00,
2013-04-28 14:13:00,61.0,59.9,30.05,North,360,0.0,0.0,96,0.00,CLR,,0.00,WeatherDisplay:10.37,2013-04-28 19:13:00,
2013-04-28 14:18:00,61.2,60.1,30.04,North,360,0.0,0.0,96,0.00,CLR,,0.00,WeatherDisplay:10.37,2013-04-28 19:18:00,
2013-04-28 14:23:00,61.3,60.2,30.06,North,360,0.0,0.0,96,0.01,RA,,0.01,WeatherDisplay:10.37,2013-04-28 19:23:00,
2013-04-28 14:28:00,61.3,60.2,30.06,North,360,0.0,0.0,96,0.01,RA,,0.01,WeatherDisplay:10.37,2013-04-28 19:28:00,
2013-04-28 14:33:00,61.5,60.3,30.06,North,360,0.0,0.0,96,0.01,CLR,,0.01,WeatherDisplay:10.37,2013-04-28 19:33:00,
2013-04-28 14:38:00,61.6,60.4,30.04,North,360,1.1,0.0,96,0.01,CLR,,0.01,WeatherDisplay:10.37,2013-04-28 19:38:00,
2013-04-28 14:43:00,61.8,60.6,30.05,North,360,0.0,0.0,96,0.01,CLR,,0.01,WeatherDisplay:10.37,2013-04-28 19:43:00,
2013-04-28 14:48:00,62.0,60.8,30.03,North,360,0.0,0.0,96,0.01,CLR,,0.01,WeatherDisplay:10.37,2013-04-28 19:48:00,
2013-04-28 14:53:00,62.0,60.8,30.02,North,360,1.0,0.0,96,0.01,CLR,,0.01,WeatherDisplay:10.37,2013-04-28 19:53:00,
2013-04-28 14:58:00,61.8,60.6,30.00,North,360,0.0,0.0,96,0.01,CLR,,0.01,WeatherDisplay:10.37,2013-04-28 19:58:00,
2013-04-28 15:03:00,61.6,60.2,30.04,North,360,2.3,2.3,95,0.01,CLR,,0.01,WeatherDisplay:10.37,2013-04-28 20:03:00,
2013-04-28 15:08:00,61.5,60.1,30.04,North,360,0.0,0.0,95,0.01,CLR,,0.01,WeatherDisplay:10.37,2013-04-28 20:08:00,
2013-04-28 15:13:00,61.6,60.2,30.04,North,360,0.0,0.0,95,0.01,CLR,,0.01,WeatherDisplay:10.37,2013-04-28 20:13:00,
2013-04-28 15:18:00,61.6,60.2,30.03,North,360,1.1,1.1,95,0.01,CLR,,0.01,WeatherDisplay:10.37,2013-04-28 20:18:00,
2013-04-28 15:23:00,61.8,60.6,30.04,North,360,0.0,0.0,96,0.00,CLR,,0.01,WeatherDisplay:10.37,2013-04-28 20:23:00,
2013-04-28 15:28:00,61.6,60.2,30.03,North,360,0.0,0.0,95,0.00,CLR,,0.01,WeatherDisplay:10.37,2013-04-28 20:28:00,
2013-04-28 15:33:00,61.8,60.4,30.03,North,360,0.0,0.0,95,0.00,CLR,,0.01,WeatherDisplay:10.37,2013-04-28 20:33:00,
2013-04-28 15:38:00,61.8,60.4,30.03,North,360,0.0,0.0,95,0.00,CLR,,0.01,WeatherDisplay:10.37,2013-04-28 20:38:00,
2013-04-28 15:43:00,61.8,60.4,30.03,North,360,0.0,0.0,95,0.00,CLR,,0.01,WeatherDisplay:10.37,2013-04-28 20:43:00,
2013-04-28 15:48:00,62.0,60.6,30.03,North,360,0.0,0.0,95,0.00,CLR,,0.01,WeatherDisplay:10.37,2013-04-28 20:48:00,
2013-04-28 15:53:00,62.1,60.7,30.04,North,360,0.0,0.0,95,0.00,CLR,,0.01,WeatherDisplay:10.37,2013-04-28 20:53:00,
2013-04-28 15:58:00,62.3,60.8,30.04,North,360,0.0,0.0,95,0.00,CLR,,0.01,WeatherDisplay:10.37,2013-04-28 20:58:00,
2013-04-28 16:03:00,62.3,60.8,30.04,NE,50,0.0,0.0,95,0.00,CLR,,0.01,WeatherDisplay:10.37,2013-04-28 21:03:00,
2013-04-28 16:08:00,62.3,60.8,30.04,NE,53,0.0,0.0,95,0.00,CLR,,0.01,WeatherDisplay:10.37,2013-04-28 21:08:00,
2013-04-28 16:13:00,62.3,60.8,30.04,NE,53,0.0,0.0,95,0.00,CLR,,0.01,WeatherDisplay:10.37,2013-04-28 21:13:00,
2013-04-28 16:18:00,62.3,60.8,30.04,NE,53,0.0,0.0,95,0.00,CLR,,0.01,WeatherDisplay:10.37,2013-04-28 21:18:00,
2013-04-28 16:23:00,62.3,60.8,30.05,NE,53,0.0,0.0,95,0.00,CLR,,0.01,WeatherDisplay:10.37,2013-04-28 21:23:00,
2013-04-28 16:28:00,62.4,60.9,30.05,NE,53,0.0,0.0,95,0.00,CLR,,0.01,WeatherDisplay:10.37,2013-04-28 21:28:00,
2013-04-28 16:33:00,62.3,60.8,30.04,NE,53,0.0,0.0,95,0.00,CLR,,0.01,WeatherDisplay:10.37,2013-04-28 21:33:00,
2013-04-28 16:38:00,62.3,60.8,30.04,NE,53,0.0,0.0,95,0.00,CLR,,0.01,WeatherDisplay:10.37,2013-04-28 21:38:00,
2013-04-28 16:43:00,62.1,60.7,30.04,NE,53,3.5,0.0,95,0.00,CLR,,0.01,WeatherDisplay:10.37,2013-04-28 21:43:00,
2013-04-28 16:48:00,61.8,60.4,30.04,East,96,1.1,0.0,95,0.00,CLR,,0.01,WeatherDisplay:10.37,2013-04-28 21:48:00,
2013-04-28 16:53:00,61.5,59.8,30.04,SSW,194,0.0,0.0,94,0.00,CLR,,0.01,WeatherDisplay:10.37,2013-04-28 21:53:00,
2013-04-28 16:58:00,61.2,59.2,30.04,SW,226,2.3,2.3,93,0.00,CLR,,0.01,WeatherDisplay:10.37,2013-04-28 21:58:00,
2013-04-28 17:03:00,61.2,59.2,30.04,SW,226,0.0,0.0,93,0.00,CLR,,0.01,WeatherDisplay:10.37,2013-04-28 22:03:00,
2013-04-28 17:09:00,61.2,59.2,30.04,SW,226,0.0,0.0,93,0.00,CLR,,0.01,WeatherDisplay:10.37,2013-04-28 22:09:00,
2013-04-28 17:14:00,61.0,59.0,30.04,SW,226,0.0,0.0,93,0.00,CLR,,0.01,WeatherDisplay:10.37,2013-04-28 22:14:00,
2013-04-28 17:19:00,61.0,59.0,30.04,SW,226,0.0,0.0,93,0.00,CLR,,0.01,WeatherDisplay:10.37,2013-04-28 22:19:00,
2013-04-28 17:24:00,61.0,59.0,30.05,SW,226,0.0,0.0,93,0.00,CLR,,0.01,WeatherDisplay:10.37,2013-04-28 22:24:00,
2013-04-28 17:29:00,61.0,59.0,30.04,SW,226,0.0,0.0,93,0.00,CLR,,0.01,WeatherDisplay:10.37,2013-04-28 22:29:00,
2013-04-28 17:34:00,60.9,58.9,30.04,SW,226,0.0,0.0,93,0.00,CLR,,0.01,WeatherDisplay:10.37,2013-04-28 22:34:00,
2013-04-28 17:39:00,60.9,58.9,30.04,SW,226,0.0,0.0,93,0.00,CLR,,0.01,WeatherDisplay:10.37,2013-04-28 22:39:00,
2013-04-28 17:44:00,60.9,58.9,30.04,SW,226,0.0,0.0,93,0.00,CLR,,0.01,WeatherDisplay:10.37,2013-04-28 22:44:00,
2013-04-28 17:49:00,60.9,58.9,30.04,SW,226,0.0,0.0,93,0.00,CLR,,0.01,WeatherDisplay:10.37,2013-04-28 22:49:00,
2013-04-28 17:54:00,60.9,58.9,30.04,SW,226,0.0,0.0,93,0.00,CLR,,0.01,WeatherDisplay:10.37,2013-04-28 22:54:00,
2013-04-28 17:59:00,60.9,59.2,30.04,SW,226,0.0,0.0,94,0.00,CLR,,0.01,WeatherDisplay:10.37,2013-04-28 22:59:00,
2013-04-28 18:04:00,60.9,59.2,30.04,SW,226,0.0,0.0,94,0.00,CLR,,0.01,WeatherDisplay:10.37,2013-04-28 23:04:00,
2013-04-28 18:09:00,61.0,59.3,30.04,SW,226,0.0,0.0,94,0.00,CLR,,0.01,WeatherDisplay:10.37,2013-04-28 23:09:00,
2013-04-28 18:14:00,61.0,59.3,30.05,SW,226,0.0,0.0,94,0.00,CLR,,0.01,WeatherDisplay:10.37,2013-04-28 23:14:00,
2013-04-28 18:19:00,61.0,59.3,30.05,SW,226,0.0,0.0,94,0.00,CLR,,0.01,WeatherDisplay:10.37,2013-04-28 23:19:00,
2013-04-28 18:24:00,60.9,59.2,30.05,SW,226,0.0,0.0,94,0.00,CLR,,0.01,WeatherDisplay:10.37,2013-04-28 23:24:00,
2013-04-28 18:29:00,60.9,59.2,30.05,SW,226,0.0,0.0,94,0.00,CLR,,0.01,WeatherDisplay:10.37,2013-04-28 23:29:00,
2013-04-28 18:34:00,60.9,59.2,30.06,SW,226,0.0,0.0,94,0.00,CLR,,0.01,WeatherDisplay:10.37,2013-04-28 23:34:00,
2013-04-28 18:39:00,60.9,59.2,30.06,SW,226,0.0,0.0,94,0.00,CLR,,0.01,WeatherDisplay:10.37,2013-04-28 23:39:00,
2013-04-28 18:44:00,60.7,59.0,30.05,SW,226,0.0,0.0,94,0.00,CLR,,0.01,WeatherDisplay:10.37,2013-04-28 23:44:00,
2013-04-28 18:49:00,60.7,59.0,30.06,SW,226,0.0,0.0,94,0.00,CLR,,0.01,WeatherDisplay:10.37,2013-04-28 23:49:00,
2013-04-28 18:54:00,60.7,59.0,30.05,SW,226,0.0,0.0,94,0.00,CLR,,0.01,WeatherDisplay:10.37,2013-04-28 23:54:00,
2013-04-28 18:59:00,60.7,59.0,30.05,SW,226,0.0,0.0,94,0.00,CLR,,0.01,WeatherDisplay:10.37,2013-04-28 23:59:00,
2013-04-28 19:04:00,60.5,58.8,30.05,SW,226,0.0,0.0,94,0.00,CLR,,0.01,WeatherDisplay:10.37,2013-04-29 00:04:00,
2013-04-28 19:09:00,60.5,58.8,30.05,SW,226,0.0,0.0,94,0.00,CLR,,0.01,WeatherDisplay:10.37,2013-04-29 00:09:00,
2013-04-28 19:14:00,60.4,58.7,30.04,SW,226,0.0,0.0,94,0.00,CLR,,0.01,WeatherDisplay:10.37,2013-04-29 00:14:00,
2013-04-28 19:19:00,60.4,58.7,30.05,SW,226,0.0,0.0,94,0.00,CLR,,0.01,WeatherDisplay:10.37,2013-04-29 00:19:00,
2013-04-28 19:24:00,60.4,58.7,30.05,SW,226,0.0,0.0,94,0.00,CLR,,0.01,WeatherDisplay:10.37,2013-04-29 00:24:00,
2013-04-28 19:29:00,60.4,58.7,30.05,SW,226,0.0,0.0,94,0.00,CLR,,0.01,WeatherDisplay:10.37,2013-04-29 00:29:00,
2013-04-28 19:34:00,60.2,58.5,30.05,SW,226,0.0,0.0,94,0.00,CLR,,0.01,WeatherDisplay:10.37,2013-04-29 00:34:00,
2013-04-28 19:39:00,60.2,58.5,30.05,SW,226,0.0,0.0,94,0.00,CLR,,0.01,WeatherDisplay:10.37,2013-04-29 00:39:00,
2013-04-28 19:44:00,60.2,58.5,30.06,SW,226,0.0,0.0,94,0.00,CLR,,0.01,WeatherDisplay:10.37,2013-04-29 00:44:00,
2013-04-28 19:49:00,60.2,58.5,30.06,SW,226,0.0,0.0,94,0.00,CLR,,0.01,WeatherDisplay:10.37,2013-04-29 00:49:00,
2013-04-28 19:54:00,60.2,58.5,30.06,SW,226,0.0,0.0,94,0.00,CLR,,0.01,WeatherDisplay:10.37,2013-04-29 00:54:00,
2013-04-28 19:59:00,60.2,58.5,30.06,SW,226,0.0,0.0,94,0.00,CLR,,0.01,WeatherDisplay:10.37,2013-04-29 00:59:00,
2013-04-28 20:04:00,60.2,58.5,30.06,SW,226,0.0,0.0,94,0.00,CLR,,0.01,WeatherDisplay:10.37,2013-04-29 01:04:00,
2013-04-28 20:09:00,60.2,58.5,30.06,SW,226,0.0,0.0,94,0.00,CLR,,0.01,WeatherDisplay:10.37,2013-04-29 01:09:00,
2013-04-28 20:14:00,60.2,58.5,30.06,SW,226,0.0,0.0,94,0.00,CLR,,0.01,WeatherDisplay:10.37,2013-04-29 01:14:00,
2013-04-28 20:19:00,60.1,58.4,30.06,SW,226,0.0,0.0,94,0.00,CLR,,0.01,WeatherDisplay:10.37,2013-04-29 01:19:00,
2013-04-28 20:24:00,60.1,58.7,30.06,SW,226,0.0,0.0,95,0.00,CLR,,0.01,WeatherDisplay:10.37,2013-04-29 01:24:00,
2013-04-28 20:29:00,60.1,58.7,30.06,SW,226,0.0,0.0,95,0.00,CLR,,0.01,WeatherDisplay:10.37,2013-04-29 01:29:00,
2013-04-28 20:34:00,60.1,58.7,30.06,SW,226,0.0,0.0,95,0.00,CLR,,0.01,WeatherDisplay:10.37,2013-04-29 01:34:00,
2013-04-28 20:39:00,60.1,58.7,30.06,SW,226,0.0,0.0,95,0.00,CLR,,0.01,WeatherDisplay:10.37,2013-04-29 01:39:00,
2013-04-28 20:44:00,59.9,58.5,30.06,SW,226,0.0,0.0,95,0.00,CLR,,0.01,WeatherDisplay:10.37,2013-04-29 01:44:00,
2013-04-28 20:49:00,59.9,58.5,30.06,SW,226,0.0,0.0,95,0.00,CLR,,0.01,WeatherDisplay:10.37,2013-04-29 01:49:00,
2013-04-28 20:54:00,59.9,58.5,30.06,SW,226,0.0,0.0,95,0.00,CLR,,0.01,WeatherDisplay:10.37,2013-04-29 01:54:00,
2013-04-28 20:59:00,59.8,58.4,30.06,SW,226,0.0,0.0,95,0.00,CLR,,0.01,WeatherDisplay:10.37,2013-04-29 01:59:00,
2013-04-28 21:04:00,59.8,58.4,30.06,SW,226,0.0,0.0,95,0.00,CLR,,0.01,WeatherDisplay:10.37,2013-04-29 02:04:00,
2013-04-28 21:09:00,59.8,58.4,30.06,SW,226,0.0,0.0,95,0.00,CLR,,0.01,WeatherDisplay:10.37,2013-04-29 02:09:00,
2013-04-28 21:14:00,59.8,58.4,30.07,SW,226,0.0,0.0,95,0.00,CLR,,0.01,WeatherDisplay:10.37,2013-04-29 02:14:00,
2013-04-28 21:19:00,59.8,58.4,30.07,SW,226,0.0,0.0,95,0.00,CLR,,0.01,WeatherDisplay:10.37,2013-04-29 02:19:00,
2013-04-28 21:24:00,59.8,58.4,30.07,SW,226,0.0,0.0,95,0.00,CLR,,0.01,WeatherDisplay:10.37,2013-04-29 02:24:00,
2013-04-28 21:29:00,59.8,58.4,30.07,SW,226,0.0,0.0,95,0.00,CLR,,0.01,WeatherDisplay:10.37,2013-04-29 02:29:00,
2013-04-28 21:34:00,59.8,58.4,30.06,SW,226,0.0,0.0,95,0.00,CLR,,0.01,WeatherDisplay:10.37,2013-04-29 02:34:00,
2013-04-28 21:39:00,59.6,58.2,30.06,SW,226,0.0,0.0,95,0.00,CLR,,0.01,WeatherDisplay:10.37,2013-04-29 02:39:00,
2013-04-28 21:44:00,59.6,58.2,30.06,SW,226,0.0,0.0,95,0.00,CLR,,0.01,WeatherDisplay:10.37,2013-04-29 02:44:00,
2013-04-28 21:49:00,59.6,58.2,30.06,SW,226,0.0,0.0,95,0.00,CLR,,0.01,WeatherDisplay:10.37,2013-04-29 02:49:00,
2013-04-28 21:54:00,59.5,58.1,30.06,SW,226,0.0,0.0,95,0.00,CLR,,0.01,WeatherDisplay:10.37,2013-04-29 02:54:00,
2013-04-28 21:59:00,59.5,58.1,30.06,SW,226,0.0,0.0,95,0.00,CLR,,0.01,WeatherDisplay:10.37,2013-04-29 02:59:00,
2013-04-28 22:04:00,59.3,57.9,30.06,SW,226,0.0,0.0,95,0.00,CLR,,0.01,WeatherDisplay:10.37,2013-04-29 03:04:00,
2013-04-28 22:09:00,59.3,57.9,30.06,SW,226,0.0,0.0,95,0.00,CLR,,0.01,WeatherDisplay:10.37,2013-04-29 03:09:00,
2013-04-28 22:14:00,59.3,57.9,30.06,SW,226,0.0,0.0,95,0.00,CLR,,0.01,WeatherDisplay:10.37,2013-04-29 03:14:00,
2013-04-28 22:19:00,59.3,57.9,30.06,SW,226,0.0,0.0,95,0.00,CLR,,0.01,WeatherDisplay:10.37,2013-04-29 03:19:00,
2013-04-28 22:24:00,59.3,58.2,30.06,SW,226,0.0,0.0,96,0.00,CLR,,0.01,WeatherDisplay:10.37,2013-04-29 03:24:00,
2013-04-28 22:29:00,59.3,58.2,30.06,SW,226,0.0,0.0,96,0.00,CLR,,0.01,WeatherDisplay:10.37,2013-04-29 03:29:00,
2013-04-28 22:34:00,59.5,58.4,30.06,SW,226,0.0,0.0,96,0.00,CLR,,0.01,WeatherDisplay:10.37,2013-04-29 03:34:00,
2013-04-28 22:39:00,59.5,58.4,30.06,SW,226,0.0,0.0,96,0.00,CLR,,0.01,WeatherDisplay:10.37,2013-04-29 03:39:00,
2013-04-28 22:44:00,59.3,58.2,30.06,SW,226,0.0,0.0,96,0.00,CLR,,0.01,WeatherDisplay:10.37,2013-04-29 03:44:00,
2013-04-28 22:49:00,59.3,58.2,30.06,SW,226,0.0,0.0,96,0.00,CLR,,0.01,WeatherDisplay:10.37,2013-04-29 03:49:00,
2013-04-28 22:54:00,59.5,58.4,30.06,SW,226,0.0,0.0,96,0.00,CLR,,0.01,WeatherDisplay:10.37,2013-04-29 03:54:00,
2013-04-28 22:59:00,59.5,58.4,30.06,SW,226,0.0,0.0,96,0.00,CLR,,0.01,WeatherDisplay:10.37,2013-04-29 03:59:00,
2013-04-28 23:01:00,59.5,58.4,30.06,SW,226,0.0,0.0,96,0.00,CLR,,0.01,WeatherDisplay:10.37,2013-04-29 04:01:00,
2013-04-28 23:02:00,59.5,58.4,30.06,SW,226,0.0,0.0,96,0.00,CLR,,0.01,WeatherDisplay:10.37,2013-04-29 04:02:00,
2013-04-28 23:07:00,59.5,58.4,30.06,SW,226,0.0,0.0,96,0.00,CLR,,0.01,WeatherDisplay:10.37,2013-04-29 04:07:00,
2013-04-28 23:12:00,59.5,58.4,30.07,SW,226,0.0,0.0,96,0.00,CLR,,0.01,WeatherDisplay:10.37,2013-04-29 04:12:00,
2013-04-28 23:17:00,59.5,58.4,30.06,SW,226,0.0,0.0,96,0.00,CLR,,0.01,WeatherDisplay:10.37,2013-04-29 04:17:00,
2013-04-28 23:22:00,59.5,58.4,30.07,SW,226,0.0,0.0,96,0.00,CLR,,0.01,WeatherDisplay:10.37,2013-04-29 04:22:00,
2013-04-28 23:27:00,59.5,58.4,30.07,SW,226,0.0,0.0,96,0.00,CLR,,0.01,WeatherDisplay:10.37,2013-04-29 04:27:00,
2013-04-28 23:32:00,59.5,58.4,30.07,SW,226,0.0,0.0,96,0.00,CLR,,0.01,WeatherDisplay:10.37,2013-04-29 04:32:00,
2013-04-28 23:37:00,59.5,58.4,30.07,SW,226,0.0,0.0,96,0.00,CLR,,0.01,WeatherDisplay:10.37,2013-04-29 04:37:00,
2013-04-28 23:42:00,59.3,58.2,30.07,SW,226,0.0,0.0,96,0.00,CLR,,0.01,WeatherDisplay:10.37,2013-04-29 04:42:00,
2013-04-28 23:47:00,59.3,58.2,30.07,SW,226,0.0,0.0,96,0.00,CLR,,0.01,WeatherDisplay:10.37,2013-04-29 04:47:00,
2013-04-28 23:52:00,59.2,58.1,30.07,SW,226,0.0,0.0,96,0.00,CLR,,0.01,WeatherDisplay:10.37,2013-04-29 04:52:00,
2013-04-28 23:57:00,59.2,58.1,30.07,SW,226,0.0,0.0,96,0.00,CLR,,0.01,WeatherDisplay:10.37,2013-04-29 04:57:00,